Terminal Aerodrome Forecast
Issued by NWS Albany, NY

Home | Current Version | Previous Version | Text Only | Print | Product List | Glossary On
Versions: 1 2 3 4 5 6 7 8 9 10 11 12 13 14 15 16 17 18 19
671
FTUS41 KALY 081137
TAFGFL
TAF
KGFL 081137Z 0812/0912 05006KT P6SM SCT035 BKN130
     FM081500 03008KT P6SM SCT050 OVC100
     FM081900 05009KT 6SM -SN OVC050
     FM082200 04007KT 3SM -SN BKN025 OVC035
     FM090000 VRB03KT 1 1/2SM -SN OVC015
     FM090900 VRB03KT 4SM -SN OVC025=

USA.gov is the U.S. government's official web portal to all federal, state and local government web resources and services.